createdAt,value
2023-04-09T00:00:01.245Z,18.52
2023-04-09T00:02:33.479Z,17.73
2023-04-09T00:05:04.974Z,16.23
2023-04-09T00:07:36.710Z,14.60
2023-04-09T00:10:08.577Z,13.50
2023-04-09T00:12:39.612Z,20.72
2023-04-09T00:15:20.608Z,18.15
2023-04-09T00:17:44.257Z,16.07
2023-04-09T00:20:15.714Z,18.57
2023-04-09T00:22:47.151Z,16.20
2023-04-09T00:25:18.194Z,16.05
2023-04-09T00:27:49.195Z,16.77
2023-04-09T00:30:20.396Z,14.20
2023-04-09T00:32:51.666Z,13.55
2023-04-09T00:35:23.108Z,16.52
2023-04-09T00:37:54.510Z,15.40
2023-04-09T00:40:26.053Z,12.95
2023-04-09T00:42:58.426Z,14.07
2023-04-09T00:45:29.798Z,15.35
2023-04-09T00:48:01.844Z,16.20
2023-04-09T00:50:32.895Z,14.75
2023-04-09T00:53:03.986Z,14.25
2023-04-09T00:55:35.182Z,16.75
2023-04-09T00:58:06.799Z,17.80
2023-04-09T01:00:38.265Z,17.05
2023-04-09T01:03:10.611Z,17.32
2023-04-09T01:05:47.400Z,17.87
2023-04-09T01:11:08.212Z,14.40
2023-04-09T01:13:47.399Z,17.70
2023-04-09T01:16:21.522Z,15.55
2023-04-09T01:19:10.465Z,14.13
2023-04-09T01:21:43.174Z,16.07
2023-04-09T01:24:19.005Z,16.40
2023-04-09T01:27:01.199Z,17.07
2023-04-09T01:29:34.842Z,15.88
2023-04-09T01:32:08.401Z,18.75
2023-04-09T01:34:40.176Z,17.57
2023-04-09T01:37:12.248Z,16.05
2023-04-09T01:39:44.058Z,14.85
2023-04-09T01:42:16.919Z,16.57
2023-04-09T01:44:48.953Z,15.08
2023-04-09T01:47:20.121Z,14.15
2023-04-09T01:49:51.539Z,15.60
2023-04-09T01:52:23.162Z,24.05
2023-04-09T01:54:54.291Z,18.10
2023-04-09T01:57:25.464Z,14.73
2023-04-09T01:59:58.021Z,18.65
2023-04-09T02:02:31.676Z,19.32
2023-04-09T02:05:05.280Z,16.60
2023-04-09T02:07:45.028Z,16.67
2023-04-09T02:10:18.398Z,16.87
2023-04-09T02:12:51.929Z,22.75
2023-04-09T02:15:23.931Z,16.93
2023-04-09T02:17:55.527Z,18.95
2023-04-09T02:20:26.575Z,16.20
2023-04-09T02:22:57.626Z,17.98
2023-04-09T02:25:29.403Z,18.80
2023-04-09T02:28:05.364Z,17.70
2023-04-09T02:30:37.224Z,14.35
2023-04-09T02:33:10.413Z,17.05
2023-04-09T02:35:41.516Z,19.52
2023-04-09T02:38:14.977Z,16.60
2023-04-09T02:40:45.954Z,17.10
2023-04-09T02:43:19.252Z,16.17
2023-04-09T02:45:50.772Z,15.72
2023-04-09T02:48:22.458Z,16.95
2023-04-09T02:50:53.832Z,19.23
2023-04-09T02:53:25.221Z,18.92
2023-04-09T02:55:56.173Z,17.07
2023-04-09T02:58:27.441Z,18.52
2023-04-09T03:00:58.446Z,17.17
2023-04-09T03:03:29.505Z,17.50
2023-04-09T03:06:00.616Z,17.65
2023-04-09T03:08:31.956Z,17.55
2023-04-09T03:11:03.891Z,18.85
2023-04-09T03:13:35.001Z,18.57
2023-04-09T03:16:06.097Z,19.82
2023-04-09T03:18:37.120Z,17.92
2023-04-09T03:21:14.338Z,19.55
2023-04-09T03:23:44.247Z,22.57
2023-04-09T03:26:15.673Z,17.07
2023-04-09T03:28:47.333Z,17.12
2023-04-09T03:31:18.303Z,17.10
2023-04-09T03:33:49.543Z,19.27
2023-04-09T03:36:20.995Z,21.05
2023-04-09T03:38:52.663Z,22.17
2023-04-09T03:41:24.280Z,18.30
2023-04-09T03:43:55.697Z,20.92
2023-04-09T03:46:26.840Z,17.02
2023-04-09T03:48:58.310Z,21.10
2023-04-09T03:51:29.416Z,20.35
2023-04-09T03:54:00.484Z,18.10
2023-04-09T03:56:31.474Z,19.98
2023-04-09T03:59:02.740Z,19.48
2023-04-09T04:01:33.884Z,20.90
2023-04-09T04:04:05.125Z,21.42
2023-04-09T04:06:37.523Z,20.27
2023-04-09T04:09:08.619Z,21.30
2023-04-09T04:11:39.679Z,23.47
2023-04-09T04:14:10.644Z,19.00
2023-04-09T04:16:43.786Z,19.82
2023-04-09T04:19:14.806Z,20.35
2023-04-09T04:21:46.059Z,22.37
2023-04-09T04:24:17.305Z,21.25
2023-04-09T04:26:48.618Z,31.93
2023-04-09T04:29:19.591Z,21.75
2023-04-09T04:31:50.628Z,19.80
2023-04-09T04:34:21.692Z,20.32
2023-04-09T04:36:53.103Z,22.90
2023-04-09T04:39:24.303Z,19.30
2023-04-09T04:41:55.414Z,24.40
2023-04-09T04:44:26.446Z,20.60
2023-04-09T04:46:57.889Z,21.37
2023-04-09T04:49:29.284Z,20.52
2023-04-09T04:52:00.408Z,25.72
2023-04-09T04:54:31.640Z,22.50
2023-04-09T04:57:03.037Z,19.37
2023-04-09T04:59:34.385Z,22.32
2023-04-09T05:02:05.642Z,20.32
2023-04-09T05:04:36.843Z,25.20
2023-04-09T05:07:28.257Z,21.30
2023-04-09T05:09:59.267Z,21.35
2023-04-09T05:12:30.528Z,19.87
2023-04-09T05:15:01.568Z,22.07
2023-04-09T05:17:33.241Z,24.77
2023-04-09T05:20:04.475Z,20.72
2023-04-09T05:22:35.619Z,21.07
2023-04-09T05:25:07.185Z,20.55
2023-04-09T05:27:38.144Z,20.92
2023-04-09T05:30:10.279Z,19.95
2023-04-09T05:32:41.431Z,22.90
2023-04-09T05:35:12.785Z,19.57
2023-04-09T05:37:43.817Z,21.35
2023-04-09T05:40:16.033Z,20.65
2023-04-09T05:42:47.188Z,21.73
2023-04-09T05:45:18.254Z,22.77
2023-04-09T05:47:49.229Z,21.52
2023-04-09T05:50:20.435Z,23.25
2023-04-09T05:52:51.515Z,20.45
2023-04-09T05:55:22.861Z,19.80
2023-04-09T05:57:55.256Z,21.07
2023-04-09T06:00:26.570Z,25.85
2023-04-09T06:02:57.816Z,22.87
2023-04-09T06:05:29.584Z,22.22
2023-04-09T06:08:00.826Z,22.85
2023-04-09T06:10:31.846Z,20.12
2023-04-09T06:13:02.841Z,19.20
2023-04-09T06:15:33.988Z,19.87
2023-04-09T06:18:05.524Z,21.17
2023-04-09T06:20:36.969Z,20.65
2023-04-09T06:23:08.822Z,21.62
2023-04-09T06:25:39.852Z,25.50
2023-04-09T06:28:10.953Z,20.60
2023-04-09T06:30:42.664Z,23.00
2023-04-09T06:33:13.726Z,19.42
2023-04-09T06:35:44.769Z,23.52
2023-04-09T06:38:15.815Z,20.70
2023-04-09T06:40:47.029Z,23.02
2023-04-09T06:43:18.340Z,18.73
2023-04-09T06:45:49.499Z,22.90
2023-04-09T06:48:20.512Z,20.43
2023-04-09T06:50:51.560Z,19.55
2023-04-09T06:53:23.477Z,18.87
2023-04-09T06:55:56.134Z,20.45
2023-04-09T06:58:27.084Z,21.37
2023-04-09T07:00:58.050Z,20.88
2023-04-09T07:03:29.125Z,21.45
2023-04-09T07:06:00.512Z,20.68
2023-04-09T07:08:31.965Z,22.48
2023-04-09T07:11:03.616Z,19.95
2023-04-09T07:13:34.873Z,20.10
2023-04-09T07:16:06.622Z,20.05
2023-04-09T07:18:37.870Z,19.90
2023-04-09T07:21:09.475Z,25.65
2023-04-09T07:23:41.270Z,19.17
2023-04-09T07:26:13.466Z,21.68
2023-04-09T07:28:45.010Z,20.82
2023-04-09T07:31:16.532Z,21.40
2023-04-09T07:33:47.614Z,20.08
2023-04-09T07:36:18.651Z,20.33
2023-04-09T07:38:49.723Z,21.45
2023-04-09T07:41:20.750Z,20.48
2023-04-09T07:43:51.883Z,22.85
2023-04-09T07:46:23.687Z,23.02
2023-04-09T07:48:55.397Z,20.10
2023-04-09T07:51:27.048Z,24.25
2023-04-09T07:53:58.121Z,21.15
2023-04-09T07:56:29.125Z,20.55
2023-04-09T07:59:00.140Z,20.95
2023-04-09T08:01:31.765Z,19.55
2023-04-09T08:04:04.089Z,29.52
2023-04-09T08:06:35.962Z,20.52
2023-04-09T08:09:07.525Z,24.77
2023-04-09T08:11:38.636Z,20.20
2023-04-09T08:14:11.068Z,22.32
2023-04-09T08:16:43.399Z,20.43
2023-04-09T08:19:15.893Z,19.55
2023-04-09T08:21:48.731Z,19.57
2023-04-09T08:24:19.697Z,18.70
2023-04-09T08:26:50.786Z,20.00
2023-04-09T08:29:21.811Z,22.35
2023-04-09T08:31:53.284Z,18.98
2023-04-09T08:34:24.222Z,19.00
2023-04-09T08:36:55.244Z,19.05
2023-04-09T08:39:26.550Z,20.40
2023-04-09T08:42:01.137Z,20.77
2023-04-09T08:44:32.505Z,21.12
2023-04-09T08:47:03.777Z,21.05
2023-04-09T08:49:35.163Z,19.85
2023-04-09T08:52:06.237Z,19.80
2023-04-09T08:54:37.262Z,19.45
2023-04-09T08:57:08.881Z,20.02
2023-04-09T08:59:39.895Z,22.50
2023-04-09T09:02:12.796Z,21.15
2023-04-09T09:04:51.225Z,19.52
2023-04-09T09:07:22.181Z,20.35
2023-04-09T09:09:58.172Z,20.15
2023-04-09T09:12:44.260Z,20.08
2023-04-09T09:18:02.788Z,23.00
2023-04-09T09:20:34.021Z,20.68
2023-04-09T09:23:05.078Z,22.60
2023-04-09T09:25:44.542Z,20.60
2023-04-09T09:28:15.855Z,19.02
2023-04-09T09:30:49.361Z,23.07
2023-04-09T09:33:20.801Z,21.20
2023-04-09T09:35:53.718Z,22.42
2023-04-09T09:38:24.743Z,18.62
2023-04-09T09:40:55.810Z,21.25
2023-04-09T09:43:27.024Z,21.93
2023-04-09T09:45:59.361Z,20.57
2023-04-09T09:48:30.452Z,21.62
2023-04-09T09:51:03.536Z,22.30
2023-04-09T09:53:36.711Z,22.00
2023-04-09T09:56:09.221Z,20.68
2023-04-09T09:58:42.518Z,26.37
2023-04-09T10:01:15.899Z,22.32
2023-04-09T10:03:48.356Z,20.77
2023-04-09T10:06:19.516Z,21.68
2023-04-09T10:08:53.320Z,21.10
2023-04-09T10:11:24.785Z,21.25
2023-04-09T10:13:58.133Z,19.73
2023-04-09T10:16:29.713Z,21.33
2023-04-09T10:19:02.159Z,19.45
2023-04-09T10:22:03.713Z,23.90
2023-04-09T10:24:37.400Z,21.23
2023-04-09T10:27:16.777Z,24.47
2023-04-09T10:29:50.426Z,21.15
2023-04-09T10:32:27.000Z,21.45
2023-04-09T10:35:02.183Z,20.75
2023-04-09T10:37:33.481Z,21.82
2023-04-09T10:40:05.938Z,21.40
2023-04-09T10:42:40.072Z,22.58
2023-04-09T10:45:12.610Z,23.55
2023-04-09T10:47:44.902Z,21.52
2023-04-09T10:50:24.344Z,25.30
2023-04-09T10:52:58.800Z,20.23
2023-04-09T10:55:41.436Z,20.12
2023-04-09T10:58:13.953Z,20.65
2023-04-09T11:00:47.137Z,29.82
2023-04-09T11:03:35.055Z,22.93
2023-04-09T11:06:11.270Z,20.10
2023-04-09T11:08:43.755Z,23.18
2023-04-09T11:11:14.838Z,20.08
2023-04-09T11:13:45.955Z,25.60
2023-04-09T11:16:22.888Z,22.02
2023-04-09T11:18:51.030Z,24.37
2023-04-09T11:21:22.170Z,25.43
2023-04-09T11:23:56.512Z,21.00
2023-04-09T11:26:30.547Z,24.37
2023-04-09T11:29:02.743Z,23.98
2023-04-09T11:31:33.766Z,23.02
2023-04-09T11:34:05.380Z,23.15
2023-04-09T11:36:38.063Z,24.25
2023-04-09T11:39:09.055Z,20.65
2023-04-09T11:41:40.872Z,26.12
2023-04-09T11:44:12.099Z,26.52
2023-04-09T11:46:43.463Z,22.45
2023-04-09T11:49:15.272Z,25.85
2023-04-09T11:51:46.336Z,22.67
2023-04-09T11:54:17.841Z,22.98
2023-04-09T11:56:50.435Z,23.25
2023-04-09T11:59:21.511Z,23.07
2023-04-09T12:01:53.680Z,24.52
2023-04-09T12:04:25.081Z,25.95
2023-04-09T12:07:02.783Z,25.23
2023-04-09T12:09:33.782Z,25.20
2023-04-09T12:12:04.802Z,24.18
2023-04-09T12:14:37.159Z,26.33
2023-04-09T12:17:09.374Z,27.98
2023-04-09T12:19:40.395Z,29.07
2023-04-09T12:22:11.424Z,23.25
2023-04-09T12:24:42.525Z,24.67
2023-04-09T12:27:13.498Z,25.68
2023-04-09T12:29:44.518Z,23.85
2023-04-09T12:32:15.939Z,25.72
2023-04-09T12:34:48.550Z,27.77
2023-04-09T12:37:19.546Z,27.70
2023-04-09T12:39:51.938Z,29.37
2023-04-09T12:42:22.980Z,27.00
2023-04-09T12:44:54.603Z,28.62
2023-04-09T12:47:25.704Z,30.32
2023-04-09T12:49:57.484Z,28.50
2023-04-09T12:52:28.685Z,27.75
2023-04-09T12:54:59.695Z,27.70
2023-04-09T12:57:31.459Z,30.72
2023-04-09T13:00:02.547Z,31.93
2023-04-09T13:02:33.772Z,28.45
2023-04-09T13:05:05.666Z,34.70
2023-04-09T13:07:36.636Z,35.58
2023-04-09T13:10:08.396Z,28.83
2023-04-09T13:12:39.425Z,39.38
2023-04-09T13:15:11.249Z,33.30
2023-04-09T13:17:42.239Z,34.85
2023-04-09T13:20:13.786Z,37.65
2023-04-09T13:22:46.314Z,34.83
2023-04-09T13:25:17.905Z,40.03
2023-04-09T13:27:49.600Z,39.00
2023-04-09T13:30:21.046Z,35.83
2023-04-09T13:32:53.329Z,40.00
2023-04-09T13:35:24.884Z,37.05
2023-04-09T13:37:55.926Z,32.33
2023-04-09T13:40:27.471Z,36.70
2023-04-09T13:42:58.856Z,37.03
2023-04-09T13:45:29.887Z,33.83
2023-04-09T13:48:01.340Z,35.60
2023-04-09T13:50:32.717Z,43.10
2023-04-09T13:53:06.336Z,41.58
2023-04-09T13:55:37.334Z,38.98
2023-04-09T13:58:08.336Z,33.85
2023-04-09T14:00:39.762Z,35.63
2023-04-09T14:03:10.855Z,39.08
2023-04-09T14:05:42.067Z,36.77
2023-04-09T14:08:13.246Z,39.90
2023-04-09T14:10:44.173Z,34.58
2023-04-09T14:13:15.281Z,34.38
2023-04-09T14:15:47.379Z,38.13
2023-04-09T14:18:19.114Z,39.10
2023-04-09T14:20:50.092Z,39.20
2023-04-09T14:23:21.095Z,40.38
2023-04-09T14:25:52.547Z,38.90
2023-04-09T14:28:23.710Z,38.45
2023-04-09T14:30:55.074Z,44.60
2023-04-09T14:33:26.071Z,44.00
2023-04-09T14:35:57.295Z,41.68
2023-04-09T14:38:28.322Z,43.38
2023-04-09T14:40:59.414Z,44.23
2023-04-09T14:43:30.498Z,38.65
2023-04-09T14:46:01.570Z,42.08
2023-04-09T14:48:32.713Z,43.85
2023-04-09T14:51:03.698Z,42.30
2023-04-09T14:53:34.698Z,42.38
2023-04-09T14:56:05.913Z,46.02
2023-04-09T14:58:37.621Z,43.23
2023-04-09T15:01:08.906Z,38.78
2023-04-09T15:03:41.863Z,36.60
2023-04-09T15:06:16.182Z,37.23
2023-04-09T15:08:48.099Z,36.05
2023-04-09T15:11:20.098Z,38.53
2023-04-09T15:13:51.110Z,37.40
2023-04-09T15:16:26.065Z,38.25
2023-04-09T15:18:59.338Z,33.63
2023-04-09T15:21:30.312Z,37.65
2023-04-09T15:24:01.407Z,38.40
2023-04-09T15:26:32.384Z,37.55
2023-04-09T15:29:08.813Z,41.98
2023-04-09T15:34:11.458Z,33.20
2023-04-09T15:36:42.915Z,33.23
2023-04-09T15:39:14.080Z,37.25
2023-04-09T15:41:45.190Z,36.63
2023-04-09T15:44:16.174Z,36.23
2023-04-09T15:46:47.164Z,38.10
2023-04-09T15:49:18.222Z,35.65
2023-04-09T15:51:49.272Z,32.58
2023-04-09T15:54:20.366Z,36.85
2023-04-09T15:56:51.401Z,36.30
2023-04-09T15:59:22.373Z,33.80
2023-04-09T16:01:53.388Z,32.10
2023-04-09T16:04:24.754Z,36.38
2023-04-09T16:06:57.625Z,32.08
2023-04-09T16:09:28.636Z,37.08
2023-04-09T16:11:59.616Z,38.63
2023-04-09T16:14:31.421Z,35.68
2023-04-09T16:17:02.476Z,38.20
2023-04-09T16:19:33.578Z,42.62
2023-04-09T16:22:04.978Z,40.50
2023-04-09T16:24:35.969Z,38.00
2023-04-09T16:27:06.948Z,39.03
2023-04-09T16:29:37.970Z,40.78
2023-04-09T16:32:09.116Z,35.45
2023-04-09T16:34:40.279Z,38.53
2023-04-09T16:37:11.290Z,37.78
2023-04-09T16:39:42.275Z,39.05
2023-04-09T16:42:13.479Z,42.90
2023-04-09T16:44:44.547Z,36.77
2023-04-09T16:47:15.546Z,39.88
2023-04-09T16:49:46.692Z,38.25
2023-04-09T16:52:17.666Z,46.75
2023-04-09T16:54:48.675Z,39.10
2023-04-09T16:57:19.676Z,41.15
2023-04-09T16:59:50.661Z,44.30
2023-04-09T17:02:23.057Z,41.90
2023-04-09T17:04:54.093Z,40.60
2023-04-09T17:07:25.542Z,41.95
2023-04-09T17:09:56.564Z,43.08
2023-04-09T17:12:28.063Z,45.25
2023-04-09T17:14:59.044Z,44.20
2023-04-09T17:17:30.031Z,44.48
2023-04-09T17:20:02.608Z,41.60
2023-04-09T17:22:33.601Z,42.88
2023-04-09T17:25:06.024Z,42.95
2023-04-09T17:27:37.008Z,40.70
2023-04-09T17:30:08.664Z,39.42
2023-04-09T17:32:40.522Z,42.83
2023-04-09T17:35:12.423Z,41.98
2023-04-09T17:37:43.442Z,39.35
2023-04-09T17:40:18.727Z,59.50
2023-04-09T17:42:49.737Z,42.93
2023-04-09T17:45:20.838Z,42.50
2023-04-09T17:47:52.207Z,39.30
2023-04-09T17:50:23.270Z,40.50
2023-04-09T17:52:54.330Z,42.62
2023-04-09T17:55:25.466Z,41.85
2023-04-09T17:57:56.608Z,41.50
2023-04-09T18:00:27.765Z,45.85
2023-04-09T18:02:59.946Z,45.80
2023-04-09T18:05:31.442Z,42.78
2023-04-09T18:08:03.637Z,40.63
2023-04-09T18:10:35.284Z,42.20
2023-04-09T18:13:06.358Z,43.87
2023-04-09T18:15:37.400Z,45.92
2023-04-09T18:18:08.617Z,46.05
2023-04-09T18:20:39.613Z,51.10
2023-04-09T18:23:10.610Z,47.17
2023-04-09T18:25:41.598Z,45.43
2023-04-09T18:28:12.568Z,49.10
2023-04-09T18:30:43.606Z,52.30
2023-04-09T18:33:14.755Z,50.25
2023-04-09T18:35:45.960Z,48.83
2023-04-09T18:38:17.043Z,50.28
2023-04-09T18:40:48.015Z,45.35
2023-04-09T18:43:19.003Z,46.53
2023-04-09T18:45:50.781Z,54.15
2023-04-09T18:48:21.786Z,51.42
2023-04-09T18:50:52.791Z,49.13
2023-04-09T18:53:23.941Z,48.90
2023-04-09T18:55:54.900Z,49.50
2023-04-09T18:58:26.011Z,53.20
2023-04-09T19:00:57.801Z,53.17
2023-04-09T19:03:30.803Z,53.45
2023-04-09T19:06:01.198Z,51.60
2023-04-09T19:08:36.554Z,47.73
2023-04-09T19:11:07.776Z,48.02
2023-04-09T19:13:39.563Z,45.92
2023-04-09T19:16:10.761Z,47.15
2023-04-09T19:18:41.950Z,47.25
2023-04-09T19:21:13.053Z,48.58
2023-04-09T19:23:44.016Z,47.90
2023-04-09T19:26:15.514Z,51.60
2023-04-09T19:28:46.615Z,53.52
2023-04-09T19:31:18.001Z,47.55
2023-04-09T19:33:48.999Z,48.90
2023-04-09T19:36:19.977Z,48.58
2023-04-09T19:38:51.714Z,52.43
2023-04-09T19:41:23.250Z,52.40
2023-04-09T19:43:54.213Z,49.55
2023-04-09T19:46:25.438Z,47.80
2023-04-09T19:48:57.777Z,54.15
2023-04-09T19:51:29.977Z,50.55
2023-04-09T19:54:00.990Z,50.25
2023-04-09T19:56:33.404Z,53.48
2023-04-09T19:59:04.362Z,50.20
2023-04-09T20:01:35.484Z,51.73
2023-04-09T20:04:06.598Z,56.02
2023-04-09T20:06:37.687Z,51.77
2023-04-09T20:09:08.775Z,55.45
2023-04-09T20:11:39.777Z,51.00
2023-04-09T20:14:12.175Z,49.75
2023-04-09T20:16:43.613Z,56.25
2023-04-09T20:19:14.663Z,49.05
2023-04-09T20:21:45.650Z,50.60
2023-04-09T20:24:17.677Z,49.55
2023-04-09T20:26:48.758Z,49.70
2023-04-09T20:29:20.596Z,50.15
2023-04-09T20:31:51.645Z,49.25
2023-04-09T20:34:24.292Z,54.63
2023-04-09T20:36:55.578Z,49.42
2023-04-09T20:39:28.728Z,54.60
2023-04-09T20:41:59.823Z,49.90
2023-04-09T20:44:31.490Z,49.25
2023-04-09T20:47:02.446Z,52.30
2023-04-09T20:49:33.432Z,47.23
2023-04-09T20:52:04.443Z,49.55
2023-04-09T20:54:35.955Z,47.93
2023-04-09T20:57:07.571Z,47.83
2023-04-09T20:59:38.808Z,53.60
2023-04-09T21:02:10.002Z,50.20
2023-04-09T21:04:41.064Z,51.33
2023-04-09T21:07:12.259Z,50.85
2023-04-09T21:09:43.231Z,53.63
2023-04-09T21:12:14.230Z,50.75
2023-04-09T21:14:45.211Z,49.80
2023-04-09T21:17:16.185Z,53.25
2023-04-09T21:19:47.443Z,53.63
2023-04-09T21:22:18.445Z,51.25
2023-04-09T21:24:49.396Z,49.58
2023-04-09T21:27:20.452Z,49.65
2023-04-09T21:29:51.425Z,52.60
2023-04-09T21:32:22.433Z,52.48
2023-04-09T21:34:53.500Z,49.88
2023-04-09T21:37:24.505Z,53.30
2023-04-09T21:39:55.483Z,47.70
2023-04-09T21:42:26.639Z,47.50
2023-04-09T21:44:57.631Z,50.00
2023-04-09T21:47:28.764Z,48.23
2023-04-09T21:49:59.926Z,53.30
2023-04-09T21:52:30.868Z,51.50
2023-04-09T21:55:01.836Z,54.38
2023-04-09T21:57:32.956Z,49.08
2023-04-09T22:00:04.080Z,53.48
2023-04-09T22:02:35.323Z,53.00
2023-04-09T22:05:06.788Z,52.98
2023-04-09T22:07:38.465Z,48.78
2023-04-09T22:10:10.693Z,55.30
2023-04-09T22:12:41.666Z,55.52
2023-04-09T22:15:13.337Z,50.65
2023-04-09T22:17:44.411Z,49.63
2023-04-09T22:20:15.433Z,48.02
2023-04-09T22:22:46.900Z,50.75
2023-04-09T22:25:18.386Z,47.73
2023-04-09T22:27:54.286Z,52.67
2023-04-09T22:30:25.675Z,54.30
2023-04-09T22:32:56.755Z,50.65
2023-04-09T22:35:27.829Z,52.75
2023-04-09T22:37:59.665Z,54.30
2023-04-09T22:40:30.620Z,54.67
2023-04-09T22:43:01.886Z,59.48
2023-04-09T22:45:33.342Z,52.45
2023-04-09T22:48:04.376Z,57.33
2023-04-09T22:50:35.514Z,54.65
2023-04-09T22:53:06.588Z,55.45
2023-04-09T22:55:37.693Z,48.40
2023-04-09T22:58:08.714Z,47.25
2023-04-09T23:00:39.669Z,46.48
2023-04-09T23:03:10.757Z,43.23
2023-04-09T23:05:42.485Z,45.10
2023-04-09T23:08:13.468Z,43.13
2023-04-09T23:10:44.536Z,42.08
2023-04-09T23:13:16.900Z,45.45
2023-04-09T23:15:47.927Z,45.30
2023-04-09T23:18:18.986Z,46.98
2023-04-09T23:20:49.949Z,44.55
2023-04-09T23:23:20.883Z,44.15
2023-04-09T23:25:52.307Z,53.10
2023-04-09T23:28:23.279Z,56.55
2023-04-09T23:30:54.282Z,57.55
2023-04-09T23:33:25.275Z,63.30
2023-04-09T23:35:56.238Z,60.03
2023-04-09T23:38:27.253Z,53.70
2023-04-09T23:40:58.251Z,60.45
2023-04-09T23:43:29.428Z,63.60
2023-04-09T23:46:00.385Z,68.60
2023-04-09T23:48:31.377Z,60.60
2023-04-09T23:51:02.347Z,65.60
2023-04-09T23:53:33.352Z,64.90
2023-04-09T23:56:04.542Z,60.60
2023-04-09T23:58:35.525Z,64.00
